createdAt,value
2023-03-06T00:01:07.316Z,8.34
2023-03-06T00:04:11.080Z,8.31
2023-03-06T00:07:16.167Z,8.38
2023-03-06T00:10:21.714Z,8.42
2023-03-06T00:13:30.266Z,8.34
2023-03-06T00:16:34.112Z,8.42
2023-03-06T00:19:37.915Z,8.27
2023-03-06T00:22:43.687Z,8.09
2023-03-06T00:25:47.904Z,8.32
2023-03-06T00:28:51.573Z,8.30
2023-03-06T00:31:55.265Z,8.20
2023-03-06T00:34:58.954Z,8.36
2023-03-06T00:38:04.087Z,8.27
2023-03-06T00:41:11.098Z,7.95
2023-03-06T00:44:14.867Z,8.01
2023-03-06T00:47:18.428Z,8.13
2023-03-06T00:50:22.139Z,8.05
2023-03-06T00:53:27.448Z,7.90
2023-03-06T00:56:31.319Z,8.09
2023-03-06T00:59:35.453Z,8.02
2023-03-06T01:02:39.218Z,8.08
2023-03-06T01:05:42.897Z,8.19
2023-03-06T01:08:47.989Z,8.01
2023-03-06T01:11:51.722Z,8.04
2023-03-06T01:14:55.389Z,8.08
2023-03-06T01:17:59.038Z,7.89
2023-03-06T01:21:02.619Z,7.88
2023-03-06T01:24:08.216Z,8.03
2023-03-06T01:27:11.825Z,8.01
2023-03-06T01:30:15.746Z,7.98
2023-03-06T01:33:19.509Z,8.06
2023-03-06T01:36:23.181Z,8.04
2023-03-06T01:39:28.947Z,8.19
2023-03-06T01:42:32.778Z,7.96
2023-03-06T01:46:13.404Z,7.95
2023-03-06T01:49:21.957Z,8.01
2023-03-06T01:52:30.467Z,8.11
2023-03-06T01:55:38.096Z,8.23
2023-03-06T01:58:43.912Z,8.22
2023-03-06T02:01:48.626Z,8.37
2023-03-06T02:04:52.643Z,8.39
2023-03-06T02:07:56.728Z,8.21
2023-03-06T02:11:08.030Z,8.05
2023-03-06T02:14:14.210Z,8.13
2023-03-06T02:17:21.171Z,8.00
2023-03-06T02:20:30.687Z,7.92
2023-03-06T02:23:42.678Z,7.96
2023-03-06T02:26:49.200Z,7.63
2023-03-06T02:29:53.320Z,7.77
2023-03-06T02:32:57.233Z,7.73
2023-03-06T02:36:03.070Z,7.80
2023-03-06T02:39:07.507Z,7.59
2023-03-06T02:42:19.527Z,7.95
2023-03-06T02:45:27.725Z,7.46
2023-03-06T02:48:31.481Z,7.49
2023-03-06T02:51:36.050Z,7.50
2023-03-06T02:54:39.748Z,7.74
2023-03-06T02:57:45.803Z,7.60
2023-03-06T03:00:51.485Z,7.63
2023-03-06T03:03:56.677Z,7.73
2023-03-06T03:07:00.805Z,7.67
2023-03-06T03:10:05.519Z,7.78
2023-03-06T03:13:11.041Z,7.63
2023-03-06T03:16:16.777Z,7.73
2023-03-06T03:19:20.389Z,7.69
2023-03-06T03:22:24.347Z,7.68
2023-03-06T03:25:28.159Z,7.41
2023-03-06T03:28:35.764Z,7.43
2023-03-06T03:31:39.713Z,7.52
2023-03-06T03:34:43.439Z,7.47
2023-03-06T03:37:47.098Z,7.80
2023-03-06T03:40:51.370Z,7.53
2023-03-06T03:43:56.436Z,7.72
2023-03-06T03:47:00.708Z,7.83
2023-03-06T03:50:04.942Z,7.44
2023-03-06T03:53:08.846Z,7.94
2023-03-06T03:56:13.344Z,7.93
2023-03-06T03:59:27.471Z,7.68
2023-03-06T04:02:50.211Z,7.56
2023-03-06T04:06:02.940Z,7.51
2023-03-06T04:09:06.944Z,7.50
2023-03-06T04:12:12.031Z,7.34
2023-03-06T04:15:17.091Z,7.45
2023-03-06T04:18:24.211Z,7.43
2023-03-06T04:21:30.389Z,7.35
2023-03-06T04:24:34.223Z,7.21
2023-03-06T04:27:38.113Z,7.50
2023-03-06T04:30:44.385Z,7.41
2023-03-06T04:33:48.076Z,7.49
2023-03-06T04:36:52.442Z,7.11
2023-03-06T04:39:56.175Z,7.34
2023-03-06T04:43:01.602Z,7.25
2023-03-06T04:46:07.036Z,7.43
2023-03-06T04:49:10.684Z,7.25
2023-03-06T04:52:14.251Z,7.13
2023-03-06T04:55:18.478Z,7.23
2023-03-06T04:58:22.251Z,7.43
2023-03-06T05:01:27.436Z,7.16
2023-03-06T05:04:31.101Z,7.28
2023-03-06T05:07:34.654Z,7.35
2023-03-06T05:10:38.478Z,7.46
2023-03-06T05:13:42.124Z,7.36
2023-03-06T05:16:47.465Z,7.39
2023-03-06T05:19:51.066Z,7.21
2023-03-06T05:22:54.733Z,7.42
2023-03-06T05:25:58.686Z,7.21
2023-03-06T05:29:02.489Z,7.14
2023-03-06T05:32:08.246Z,7.36
2023-03-06T05:35:18.998Z,7.27
2023-03-06T05:38:23.327Z,7.40
2023-03-06T05:41:26.974Z,7.09
2023-03-06T05:44:33.581Z,7.50
2023-03-06T05:47:38.722Z,7.46
2023-03-06T05:50:42.435Z,7.52
2023-03-06T05:53:46.199Z,7.71
2023-03-06T05:56:50.560Z,7.82
2023-03-06T05:59:54.468Z,7.80
2023-03-06T06:03:02.526Z,8.38
2023-03-06T06:06:07.131Z,8.66
2023-03-06T06:09:13.773Z,8.71
2023-03-06T06:12:17.672Z,9.16
2023-03-06T06:15:21.450Z,9.34
2023-03-06T06:18:26.724Z,9.43
2023-03-06T06:21:30.581Z,9.40
2023-03-06T06:24:34.457Z,9.96
2023-03-06T06:27:38.215Z,10.16
2023-03-06T06:30:42.009Z,10.25
2023-03-06T06:33:47.414Z,10.34
2023-03-06T06:36:53.511Z,10.84
2023-03-06T06:39:57.615Z,10.87
2023-03-06T06:43:01.480Z,10.91
2023-03-06T06:46:36.463Z,11.17
2023-03-06T06:49:31.266Z,11.65
2023-03-06T06:52:35.600Z,11.67
2023-03-06T06:55:39.423Z,11.85
2023-03-06T06:58:43.138Z,11.93
2023-03-06T07:01:47.066Z,11.61
2023-03-06T07:05:04.265Z,11.99
2023-03-06T07:08:09.278Z,11.80
2023-03-06T07:11:15.198Z,12.10
2023-03-06T07:14:19.211Z,12.68
2023-03-06T07:17:25.534Z,12.61
2023-03-06T07:20:32.199Z,12.53
2023-03-06T07:23:36.261Z,13.26
2023-03-06T07:26:40.112Z,13.21
2023-03-06T07:29:45.047Z,13.41
2023-03-06T07:32:48.920Z,13.72
2023-03-06T07:35:54.387Z,13.72
2023-03-06T07:38:58.201Z,13.44
2023-03-06T07:42:02.220Z,13.28
2023-03-06T07:45:08.164Z,13.56
2023-03-06T07:48:12.030Z,13.67
2023-03-06T07:51:19.022Z,13.68
2023-03-06T07:54:22.968Z,14.10
2023-03-06T07:57:26.955Z,14.18
2023-03-06T08:00:30.848Z,14.34
2023-03-06T08:03:35.183Z,14.32
2023-03-06T08:06:40.501Z,14.74
2023-03-06T08:09:44.313Z,14.97
2023-03-06T08:12:48.224Z,14.59
2023-03-06T08:15:52.131Z,14.99
2023-03-06T08:18:56.380Z,15.22
2023-03-06T08:22:01.674Z,15.13
2023-03-06T08:25:06.789Z,15.43
2023-03-06T08:28:10.636Z,15.62
2023-03-06T08:31:22.612Z,16.16
2023-03-06T08:34:27.335Z,16.51
2023-03-06T08:37:32.600Z,16.42
2023-03-06T08:40:36.442Z,16.12
2023-03-06T08:43:40.622Z,16.39
2023-03-06T08:46:44.501Z,16.55
2023-03-06T08:49:48.403Z,16.91
2023-03-06T08:52:53.663Z,16.97
2023-03-06T08:55:57.589Z,16.22
2023-03-06T08:59:04.266Z,16.02
2023-03-06T09:02:08.181Z,16.33
2023-03-06T09:05:12.469Z,16.59
2023-03-06T09:08:18.249Z,17.06
2023-03-06T09:11:27.331Z,17.01
2023-03-06T09:14:32.545Z,17.46
2023-03-06T09:18:06.815Z,17.27
2023-03-06T09:21:11.438Z,17.08
2023-03-06T09:24:16.894Z,17.51
2023-03-06T09:27:20.721Z,17.98
2023-03-06T09:30:24.633Z,18.14
2023-03-06T09:33:28.922Z,18.15
2023-03-06T09:36:42.788Z,18.45
2023-03-06T09:39:54.686Z,18.18
2023-03-06T09:42:58.551Z,18.44
2023-03-06T09:46:02.789Z,18.18
2023-03-06T09:49:17.152Z,18.16
2023-03-06T09:52:38.858Z,18.12
2023-03-06T09:55:47.604Z,17.99
2023-03-06T09:58:55.126Z,18.36
2023-03-06T10:02:03.254Z,18.51
2023-03-06T10:05:12.425Z,18.82
2023-03-06T10:08:25.505Z,18.51
2023-03-06T10:11:38.224Z,18.03
2023-03-06T10:14:48.465Z,18.54
2023-03-06T10:17:53.446Z,18.33
2023-03-06T10:21:16.928Z,18.29
2023-03-06T10:24:43.684Z,18.22
2023-03-06T10:27:51.051Z,18.38
2023-03-06T10:31:04.056Z,18.72
2023-03-06T10:34:20.979Z,18.77
2023-03-06T10:37:25.030Z,18.57
2023-03-06T10:40:39.928Z,19.01
2023-03-06T10:43:46.979Z,19.03
2023-03-06T10:46:52.873Z,19.04
2023-03-06T10:50:06.668Z,18.93
2023-03-06T10:53:22.712Z,19.01
2023-03-06T10:56:32.046Z,19.48
2023-03-06T10:59:51.957Z,18.60
2023-03-06T11:03:07.989Z,18.75
2023-03-06T11:06:14.588Z,18.47
2023-03-06T11:09:23.802Z,18.81
2023-03-06T11:12:29.904Z,19.05
2023-03-06T11:15:35.466Z,19.42
2023-03-06T11:18:42.388Z,18.90
2023-03-06T11:22:01.743Z,19.11
2023-03-06T11:25:06.992Z,19.53
2023-03-06T11:28:20.090Z,19.30
2023-03-06T11:31:30.326Z,18.78
2023-03-06T11:34:41.911Z,18.72
2023-03-06T11:37:51.532Z,18.98
2023-03-06T11:40:57.746Z,19.23
2023-03-06T11:44:07.664Z,19.33
2023-03-06T11:47:44.895Z,18.72
2023-03-06T11:50:51.267Z,18.78
2023-03-06T11:53:56.624Z,19.34
2023-03-06T11:57:03.754Z,18.86
2023-03-06T12:00:22.738Z,19.20
2023-03-06T12:03:57.502Z,19.40
2023-03-06T12:07:11.382Z,19.34
2023-03-06T12:10:20.582Z,19.33
2023-03-06T12:13:50.241Z,19.61
2023-03-06T12:17:09.596Z,19.32
2023-03-06T12:20:31.970Z,19.53
2023-03-06T12:23:57.988Z,19.71
2023-03-06T12:27:15.209Z,19.45
2023-03-06T12:30:50.062Z,19.28
2023-03-06T12:34:07.298Z,19.37
2023-03-06T12:37:23.270Z,19.44
2023-03-06T12:40:47.123Z,18.90
2023-03-06T12:44:15.876Z,18.84
2023-03-06T12:47:23.299Z,18.51
2023-03-06T12:50:30.347Z,18.77
2023-03-06T12:53:51.528Z,18.90
2023-03-06T12:56:58.264Z,18.70
2023-03-06T13:00:02.151Z,18.95
2023-03-06T13:03:19.189Z,19.20
2023-03-06T13:06:56.018Z,18.90
2023-03-06T13:10:10.338Z,18.91
2023-03-06T13:13:33.192Z,18.20
2023-03-06T13:16:37.032Z,18.20
2023-03-06T13:19:40.795Z,18.32
2023-03-06T13:22:45.863Z,18.00
2023-03-06T13:25:52.304Z,18.22
2023-03-06T13:28:58.430Z,18.11
2023-03-06T13:32:18.460Z,18.26
2023-03-06T13:35:49.979Z,18.14
2023-03-06T13:39:02.309Z,17.76
2023-03-06T13:42:08.607Z,17.20
2023-03-06T13:45:18.018Z,17.21
2023-03-06T13:48:47.832Z,17.55
2023-03-06T13:52:07.825Z,17.99
2023-03-06T13:55:25.729Z,17.90
2023-03-06T13:58:46.469Z,17.33
2023-03-06T14:02:04.352Z,17.37
2023-03-06T14:05:13.482Z,17.71
2023-03-06T14:08:19.904Z,17.96
2023-03-06T14:11:23.806Z,17.48
2023-03-06T14:14:36.108Z,17.34
2023-03-06T14:17:40.047Z,17.13
2023-03-06T14:20:46.668Z,16.98
2023-03-06T14:24:00.707Z,17.15
2023-03-06T14:27:04.876Z,17.14
2023-03-06T14:30:17.894Z,17.06
2023-03-06T14:33:35.217Z,17.06
2023-03-06T14:36:46.057Z,17.20
2023-03-06T14:39:50.679Z,17.20
2023-03-06T14:43:13.309Z,17.36
2023-03-06T14:46:23.711Z,16.96
2023-03-06T14:49:28.098Z,16.56
2023-03-06T14:52:32.191Z,16.52
2023-03-06T14:55:37.844Z,16.51
2023-03-06T14:58:48.014Z,16.54
2023-03-06T15:01:58.447Z,16.44
2023-03-06T15:05:07.214Z,16.16
2023-03-06T15:08:11.189Z,16.01
2023-03-06T15:11:15.292Z,16.00
2023-03-06T15:14:20.662Z,15.87
2023-03-06T15:17:30.117Z,16.07
2023-03-06T15:20:48.597Z,16.05
2023-03-06T15:23:53.295Z,15.90
2023-03-06T15:26:59.513Z,15.89
2023-03-06T15:30:14.986Z,15.72
2023-03-06T15:33:27.652Z,15.61
2023-03-06T15:36:33.140Z,15.66
2023-03-06T15:39:39.647Z,15.61
2023-03-06T15:42:44.335Z,15.55
2023-03-06T15:45:48.269Z,15.22
2023-03-06T15:49:01.071Z,15.27
2023-03-06T15:52:05.833Z,15.38
2023-03-06T15:55:10.706Z,15.30
2023-03-06T15:58:18.297Z,15.10
2023-03-06T16:01:22.543Z,14.92
2023-03-06T16:04:28.006Z,14.96
2023-03-06T16:07:31.915Z,14.96
2023-03-06T16:10:39.612Z,14.78
2023-03-06T16:13:43.496Z,14.96
2023-03-06T16:16:47.675Z,14.86
2023-03-06T16:19:53.284Z,14.75
2023-03-06T16:22:57.599Z,14.60
2023-03-06T16:26:01.530Z,14.60
2023-03-06T16:29:05.725Z,14.58
2023-03-06T16:32:12.826Z,14.52
2023-03-06T16:35:18.804Z,14.71
2023-03-06T16:38:22.747Z,14.64
2023-03-06T16:41:26.740Z,14.74
2023-03-06T16:44:30.626Z,14.67
2023-03-06T16:47:34.399Z,14.80
2023-03-06T16:50:41.860Z,14.63
2023-03-06T16:53:46.409Z,14.61
2023-03-06T16:56:50.383Z,14.53
2023-03-06T16:59:54.328Z,14.54
2023-03-06T17:02:58.192Z,14.65
2023-03-06T17:06:03.849Z,14.65
2023-03-06T17:09:08.080Z,14.62
2023-03-06T17:12:12.104Z,14.74
2023-03-06T17:15:16.071Z,14.67
2023-03-06T17:18:20.011Z,14.65
2023-03-06T17:21:26.948Z,14.50
2023-03-06T17:24:31.029Z,14.43
2023-03-06T17:27:37.802Z,14.36
2023-03-06T17:30:41.723Z,14.18
2023-03-06T17:33:45.703Z,14.30
2023-03-06T17:36:51.089Z,14.22
2023-03-06T17:39:55.298Z,14.32
2023-03-06T17:42:59.233Z,14.43
2023-03-06T17:46:05.242Z,14.45
2023-03-06T17:49:10.212Z,14.37
2023-03-06T17:52:15.585Z,14.13
2023-03-06T17:55:19.459Z,13.98
2023-03-06T17:58:23.342Z,14.02
2023-03-06T18:01:28.753Z,14.03
2023-03-06T18:04:32.676Z,14.03
2023-03-06T18:07:37.942Z,13.80
2023-03-06T18:10:42.585Z,13.86
2023-03-06T18:13:47.683Z,13.90
2023-03-06T18:16:51.700Z,13.73
2023-03-06T18:19:57.008Z,13.68
2023-03-06T18:23:03.916Z,13.74
2023-03-06T18:26:10.579Z,13.70
2023-03-06T18:29:14.586Z,13.46
2023-03-06T18:32:18.355Z,13.45
2023-03-06T18:35:22.689Z,13.44
2023-03-06T18:38:27.930Z,13.21
2023-03-06T18:41:32.667Z,13.20
2023-03-06T18:44:36.441Z,13.09
2023-03-06T18:47:40.736Z,12.98
2023-03-06T18:50:44.623Z,12.88
2023-03-06T18:53:50.130Z,12.96
2023-03-06T18:56:53.948Z,12.84
2023-03-06T18:59:57.808Z,13.02
2023-03-06T19:03:01.476Z,12.86
2023-03-06T19:06:10.700Z,12.83
2023-03-06T19:09:15.985Z,12.59
2023-03-06T19:12:19.828Z,12.65
2023-03-06T19:15:23.663Z,12.51
2023-03-06T19:18:28.904Z,12.61
2023-03-06T19:21:33.068Z,12.62
2023-03-06T19:24:38.324Z,12.57
2023-03-06T19:27:45.009Z,12.57
2023-03-06T19:30:48.693Z,12.59
2023-03-06T19:33:54.132Z,12.56
2023-03-06T19:36:57.921Z,12.43
2023-03-06T19:40:04.036Z,12.57
2023-03-06T19:43:08.061Z,12.55
2023-03-06T19:46:14.395Z,12.28
2023-03-06T19:49:21.921Z,12.19
2023-03-06T19:52:25.863Z,12.47
2023-03-06T19:55:32.082Z,12.37
2023-03-06T19:58:36.060Z,12.22
2023-03-06T20:01:40.708Z,12.22
2023-03-06T20:04:44.625Z,12.49
2023-03-06T20:07:48.493Z,12.43
2023-03-06T20:10:53.825Z,12.50
2023-03-06T20:13:58.592Z,12.34
2023-03-06T20:17:02.631Z,12.18
2023-03-06T20:20:07.449Z,12.11
2023-03-06T20:23:11.616Z,12.19
2023-03-06T20:26:17.981Z,12.14
2023-03-06T20:29:21.972Z,12.06
2023-03-06T20:32:26.059Z,12.08
2023-03-06T20:35:30.038Z,12.15
2023-03-06T20:38:33.783Z,12.03
2023-03-06T20:41:39.302Z,11.99
2023-03-06T20:44:43.072Z,11.81
2023-03-06T20:47:47.534Z,11.89
2023-03-06T20:51:01.382Z,11.95
2023-03-06T20:54:05.818Z,11.94
2023-03-06T20:57:11.106Z,11.99
2023-03-06T21:00:15.657Z,11.93
2023-03-06T21:03:19.419Z,12.02
2023-03-06T21:06:23.405Z,11.90
2023-03-06T21:09:27.342Z,11.53
2023-03-06T21:12:32.547Z,11.58
2023-03-06T21:15:39.240Z,11.44
2023-03-06T21:18:43.175Z,11.51
2023-03-06T21:21:47.036Z,11.86
2023-03-06T21:24:50.878Z,11.57
2023-03-06T21:27:56.470Z,11.40
2023-03-06T21:31:02.051Z,11.32
2023-03-06T21:34:06.495Z,11.44
2023-03-06T21:37:10.360Z,11.54
2023-03-06T21:40:15.495Z,11.77
2023-03-06T21:43:20.833Z,11.45
2023-03-06T21:46:25.179Z,11.33
2023-03-06T21:49:29.719Z,11.32
2023-03-06T21:52:33.494Z,11.13
2023-03-06T21:55:40.812Z,11.14
2023-03-06T21:58:47.402Z,11.28
2023-03-06T22:01:51.578Z,11.31
2023-03-06T22:04:55.590Z,11.40
2023-03-06T22:07:59.978Z,11.18
2023-03-06T22:11:07.713Z,11.08
2023-03-06T22:14:15.059Z,11.26
2023-03-06T22:17:19.094Z,11.11
2023-03-06T22:20:23.096Z,11.04
2023-03-06T22:23:27.182Z,10.50
2023-03-06T22:26:31.784Z,10.49
2023-03-06T22:29:37.456Z,10.59
2023-03-06T22:32:41.496Z,10.66
2023-03-06T22:35:45.302Z,10.65
2023-03-06T22:38:50.189Z,10.93
2023-03-06T22:41:56.633Z,10.99
2023-03-06T22:45:01.773Z,10.88
2023-03-06T22:48:11.028Z,10.74
2023-03-06T22:51:17.785Z,10.81
2023-03-06T22:54:21.720Z,10.27
2023-03-06T22:57:25.912Z,10.48
2023-03-06T23:00:31.499Z,10.41
2023-03-06T23:03:36.266Z,10.38
2023-03-06T23:06:41.479Z,10.34
2023-03-06T23:09:45.231Z,10.07
2023-03-06T23:13:10.444Z,10.38
2023-03-06T23:16:34.489Z,10.18
2023-03-06T23:19:56.693Z,10.37
2023-03-06T23:23:19.145Z,10.30
2023-03-06T23:26:25.091Z,9.92
2023-03-06T23:29:29.052Z,9.71
2023-03-06T23:32:35.087Z,9.98
2023-03-06T23:35:40.179Z,10.39
2023-03-06T23:38:44.572Z,10.03
2023-03-06T23:41:48.400Z,9.82
2023-03-06T23:44:52.518Z,9.89
2023-03-06T23:47:58.195Z,9.93
2023-03-06T23:51:02.231Z,10.06
2023-03-06T23:54:07.206Z,10.05
2023-03-06T23:57:11.253Z,9.67
